createdAt,value
2022-09-05T00:02:49.161Z,9.52
2022-09-05T00:06:02.723Z,7.15
2022-09-05T00:08:54.839Z,8.18
2022-09-05T00:11:41.892Z,10.27
2022-09-05T00:15:15.128Z,7.45
2022-09-05T00:18:09.848Z,8.52
2022-09-05T00:24:26.075Z,10.40
2022-09-05T00:24:32.905Z,9.07
2022-09-05T00:27:04.377Z,6.93
2022-09-05T00:31:08.969Z,15.95
2022-09-05T00:33:01.526Z,12.32
2022-09-05T00:35:48.019Z,8.30
2022-09-05T00:38:22.254Z,6.32
2022-09-05T00:41:02.679Z,7.43
2022-09-05T00:43:33.623Z,9.15
2022-09-05T00:46:07.617Z,6.10
2022-09-05T00:49:09.430Z,9.88
2022-09-05T00:51:55.563Z,10.45
2022-09-05T00:54:32.658Z,18.50
2022-09-05T00:57:29.040Z,9.35
2022-09-05T01:00:17.000Z,8.80
2022-09-05T01:03:16.240Z,9.68
2022-09-05T01:06:00.347Z,12.45
2022-09-05T01:08:42.319Z,11.50
2022-09-05T01:11:39.663Z,13.40
2022-09-05T01:14:21.564Z,6.70
2022-09-05T01:17:11.270Z,5.65
2022-09-05T01:20:19.073Z,10.55
2022-09-05T01:23:18.167Z,7.25
2022-09-05T01:26:09.101Z,11.00
2022-09-05T01:29:18.402Z,8.45
2022-09-05T01:32:04.215Z,10.35
2022-09-05T01:34:53.280Z,9.90
2022-09-05T01:37:33.131Z,8.43
2022-09-05T01:40:16.419Z,8.40
2022-09-05T01:43:05.410Z,12.70
2022-09-05T01:45:47.416Z,8.40
2022-09-05T01:48:47.722Z,15.60
2022-09-05T01:51:41.360Z,15.70
2022-09-05T01:54:38.547Z,15.18
2022-09-05T02:00:16.932Z,15.68
2022-09-05T02:02:53.121Z,19.55
2022-09-05T02:08:16.173Z,9.68
2022-09-05T02:11:03.737Z,12.27
2022-09-05T02:13:44.570Z,10.82
2022-09-05T02:16:24.048Z,13.50
2022-09-05T02:19:10.638Z,13.10
2022-09-05T02:21:56.348Z,12.48
2022-09-05T02:24:47.078Z,11.88
2022-09-05T02:28:03.541Z,10.43
2022-09-05T02:30:20.370Z,11.15
2022-09-05T02:32:51.309Z,10.85
2022-09-05T02:35:47.133Z,15.65
2022-09-05T02:43:32.359Z,10.98
2022-09-05T02:45:09.928Z,10.25
2022-09-05T02:45:17.001Z,16.17
2022-09-05T02:47:39.363Z,14.02
2022-09-05T02:57:28.327Z,13.10
2022-09-05T02:57:32.671Z,12.88
2022-09-05T02:57:38.163Z,9.63
2022-09-05T02:59:25.843Z,13.73
2022-09-05T03:02:25.235Z,9.35
2022-09-05T03:05:00.960Z,8.63
2022-09-05T03:08:02.204Z,11.02
2022-09-05T03:10:53.573Z,11.60
2022-09-05T03:13:50.153Z,11.30
2022-09-05T03:16:40.592Z,11.77
2022-09-05T03:19:29.685Z,13.73
2022-09-05T03:22:17.211Z,16.98
2022-09-05T03:25:24.370Z,9.43
2022-09-05T03:28:06.176Z,12.45
2022-09-05T03:30:56.319Z,11.50
2022-09-05T03:33:54.263Z,11.50
2022-09-05T03:36:39.058Z,10.10
2022-09-05T03:39:22.244Z,14.98
2022-09-05T03:42:14.475Z,10.88
2022-09-05T03:44:49.121Z,14.85
2022-09-05T03:47:31.085Z,12.10
2022-09-05T03:52:58.385Z,12.63
2022-09-05T03:57:14.767Z,18.08
2022-09-05T03:57:24.820Z,11.20
2022-09-05T03:59:42.619Z,14.02
2022-09-05T04:06:08.996Z,18.17
2022-09-05T04:08:11.061Z,11.88
2022-09-05T04:08:31.534Z,12.23
2022-09-05T04:11:07.591Z,10.65
2022-09-05T04:13:45.737Z,13.38
2022-09-05T04:16:23.084Z,13.35
2022-09-05T04:19:05.047Z,12.68
2022-09-05T04:21:48.488Z,15.45
2022-09-05T04:24:27.393Z,13.68
2022-09-05T04:27:17.718Z,14.27
2022-09-05T04:30:00.484Z,15.00
2022-09-05T04:32:54.631Z,12.48
2022-09-05T04:35:22.471Z,14.70
2022-09-05T04:38:04.888Z,11.90
2022-09-05T04:41:03.770Z,12.10
2022-09-05T04:43:30.923Z,13.48
2022-09-05T04:46:25.550Z,17.38
2022-09-05T04:49:10.580Z,15.35
2022-09-05T04:52:00.386Z,13.15
2022-09-05T04:54:48.411Z,21.70
2022-09-05T04:57:26.330Z,14.43
2022-09-05T05:05:58.296Z,22.23
2022-09-05T05:06:19.105Z,18.27
2022-09-05T05:06:38.276Z,18.73
2022-09-05T05:08:59.358Z,19.05
2022-09-05T05:18:03.563Z,15.68
2022-09-05T05:18:04.037Z,14.00
2022-09-05T05:18:11.480Z,14.77
2022-09-05T05:20:53.615Z,15.75
2022-09-05T05:23:31.519Z,15.77
2022-09-05T05:26:02.601Z,16.25
2022-09-05T05:28:50.411Z,15.43
2022-09-05T05:31:26.488Z,20.08
2022-09-05T05:33:54.585Z,19.00
2022-09-05T05:36:28.110Z,28.95
2022-09-05T05:39:02.966Z,26.02
2022-09-05T05:41:30.706Z,27.88
2022-09-05T05:43:59.126Z,33.85
2022-09-05T05:46:33.010Z,25.33
2022-09-05T05:49:27.282Z,29.92
2022-09-05T05:52:13.167Z,31.90
2022-09-05T05:54:49.758Z,26.73
2022-09-05T05:57:38.226Z,33.55
2022-09-05T06:00:04.911Z,29.20
2022-09-05T06:02:47.516Z,29.27
2022-09-05T06:06:07.153Z,42.67
2022-09-05T06:12:16.196Z,41.50
2022-09-05T06:15:02.366Z,33.97
2022-09-05T06:15:21.234Z,40.28
2022-09-05T06:18:19.095Z,43.47
2022-09-05T06:22:10.650Z,39.20
2022-09-05T06:24:39.883Z,34.72
2022-09-05T06:27:21.763Z,43.60
2022-09-05T06:29:57.598Z,43.50
2022-09-05T06:32:56.720Z,42.55
2022-09-05T06:36:04.110Z,44.38
2022-09-05T06:39:02.589Z,48.63
2022-09-05T06:41:44.365Z,52.22
2022-09-05T06:44:40.391Z,45.17
2022-09-05T06:47:24.026Z,52.70
2022-09-05T06:50:27.382Z,50.05
2022-09-05T06:52:53.560Z,46.65
2022-09-05T06:55:50.827Z,49.65
2022-09-05T07:01:01.693Z,54.03
2022-09-05T07:03:37.902Z,40.78
2022-09-05T07:06:20.195Z,37.17
2022-09-05T07:08:51.195Z,28.45
2022-09-05T07:11:25.878Z,30.88
2022-09-05T07:14:23.134Z,25.95
2022-09-05T07:19:38.333Z,26.08
2022-09-05T07:22:47.813Z,26.60
2022-09-05T07:25:18.251Z,26.75
2022-09-05T07:28:26.553Z,30.42
2022-09-05T07:30:52.701Z,25.98
2022-09-05T07:33:24.556Z,33.17
2022-09-05T07:35:52.563Z,27.38
2022-09-05T07:38:48.985Z,31.88
2022-09-05T07:41:29.074Z,34.03
2022-09-05T07:44:03.512Z,34.80
2022-09-05T07:46:35.546Z,33.10
2022-09-05T07:49:07.929Z,34.88
2022-09-05T07:56:56.644Z,32.45
2022-09-05T07:57:03.985Z,38.40
2022-09-05T07:57:30.662Z,38.25
2022-09-05T08:00:08.031Z,32.67
2022-09-05T08:02:54.955Z,39.38
2022-09-05T08:05:34.255Z,47.28
2022-09-05T08:08:07.870Z,30.20
2022-09-05T08:11:23.966Z,30.85
2022-09-05T08:13:49.564Z,32.10
2022-09-05T08:16:21.306Z,38.50
2022-09-05T08:18:54.615Z,39.20
2022-09-05T08:21:39.765Z,38.58
2022-09-05T08:24:26.906Z,30.48
2022-09-05T08:27:18.608Z,31.35
2022-09-05T08:30:26.223Z,32.47
2022-09-05T08:32:41.563Z,31.75
2022-09-05T08:35:15.831Z,26.88
2022-09-05T08:37:44.309Z,25.58
2022-09-05T08:40:19.753Z,30.38
2022-09-05T08:44:13.567Z,30.08
2022-09-05T08:46:42.191Z,28.48
2022-09-05T08:48:35.123Z,26.95
2022-09-05T08:51:15.533Z,30.38
2022-09-05T08:54:02.110Z,25.75
2022-09-05T08:59:28.041Z,30.45
2022-09-05T09:02:45.118Z,26.92
2022-09-05T09:05:16.821Z,22.98
2022-09-05T09:07:52.000Z,23.75
2022-09-05T09:10:49.640Z,23.80
2022-09-05T09:16:04.971Z,24.10
2022-09-05T09:18:47.959Z,19.95
2022-09-05T09:21:44.988Z,21.10
2022-09-05T09:26:55.674Z,19.25
2022-09-05T09:29:25.493Z,19.10
2022-09-05T09:32:13.307Z,20.75
2022-09-05T09:34:51.442Z,21.92
2022-09-05T09:37:49.957Z,18.92
2022-09-05T09:40:41.332Z,18.30
2022-09-05T09:43:14.263Z,18.08
2022-09-05T09:46:12.203Z,17.02
2022-09-05T09:48:53.708Z,16.45
2022-09-05T09:51:26.918Z,19.48
2022-09-05T09:54:10.336Z,19.67
2022-09-05T09:56:53.312Z,18.02
2022-09-05T09:59:54.037Z,15.80
2022-09-05T10:05:41.485Z,18.38
2022-09-05T10:10:35.785Z,17.02
2022-09-05T10:10:48.639Z,23.30
2022-09-05T10:12:00.863Z,17.58
2022-09-05T10:14:50.891Z,17.52
2022-09-05T10:17:32.955Z,18.95
2022-09-05T10:20:29.592Z,16.58
2022-09-05T10:23:26.917Z,13.77
2022-09-05T10:26:22.097Z,17.85
2022-09-05T10:29:37.045Z,17.98
2022-09-05T10:35:07.809Z,15.93
2022-09-05T10:35:10.321Z,18.10
2022-09-05T10:37:51.350Z,13.95
2022-09-05T10:40:24.025Z,18.17
2022-09-05T10:43:02.080Z,14.23
2022-09-05T10:45:47.557Z,15.05
2022-09-05T10:48:22.019Z,12.50
2022-09-05T10:51:00.595Z,13.75
2022-09-05T10:53:44.253Z,13.70
2022-09-05T10:56:18.280Z,12.40
2022-09-05T11:02:15.772Z,14.95
2022-09-05T11:02:29.552Z,14.20
2022-09-05T11:05:06.244Z,16.90
2022-09-05T11:07:47.575Z,16.52
2022-09-05T11:10:22.956Z,11.98
2022-09-05T11:13:04.954Z,11.80
2022-09-05T11:16:04.905Z,13.65
2022-09-05T11:18:55.899Z,15.18
2022-09-05T11:21:43.049Z,10.63
2022-09-05T11:24:27.641Z,15.13
2022-09-05T11:27:24.843Z,14.90
2022-09-05T11:29:54.293Z,18.17
2022-09-05T11:35:33.978Z,14.80
2022-09-05T11:39:47.922Z,12.15
2022-09-05T11:40:09.611Z,12.05
2022-09-05T11:41:29.151Z,14.07
2022-09-05T11:44:21.238Z,10.65
2022-09-05T11:47:27.201Z,11.85
2022-09-05T11:50:17.832Z,9.57
2022-09-05T11:53:18.640Z,9.65
2022-09-05T11:55:58.679Z,12.18
2022-09-05T11:58:47.189Z,11.07
2022-09-05T12:01:42.698Z,10.32
2022-09-05T12:04:17.545Z,10.15
2022-09-05T12:07:00.683Z,13.88
2022-09-05T12:09:53.443Z,10.63
2022-09-05T12:12:39.614Z,14.40
2022-09-05T12:15:24.081Z,11.15
2022-09-05T12:17:51.649Z,10.00
2022-09-05T12:20:26.221Z,11.70
2022-09-05T12:23:08.319Z,8.13
2022-09-05T12:27:42.718Z,14.27
2022-09-05T12:29:32.676Z,9.75
2022-09-05T12:33:45.466Z,7.35
2022-09-05T12:36:12.246Z,7.72
2022-09-05T12:40:45.119Z,9.18
2022-09-05T12:41:44.182Z,8.02
2022-09-05T12:44:41.531Z,8.48
2022-09-05T12:47:17.063Z,10.50
2022-09-05T12:50:02.978Z,9.85
2022-09-05T12:52:33.825Z,8.82
2022-09-05T12:55:10.959Z,7.88
2022-09-05T13:02:27.823Z,9.13
2022-09-05T13:03:13.812Z,10.20
2022-09-05T13:03:34.812Z,12.10
2022-09-05T13:06:05.244Z,9.60
2022-09-05T13:08:44.068Z,8.98
2022-09-05T13:14:52.311Z,7.65
2022-09-05T13:14:56.092Z,7.45
2022-09-05T13:17:08.746Z,9.13
2022-09-05T13:19:43.455Z,9.27
2022-09-05T13:22:14.598Z,13.45
2022-09-05T13:24:46.839Z,10.32
2022-09-05T13:27:17.566Z,9.85
2022-09-05T13:32:10.249Z,9.35
2022-09-05T13:38:02.438Z,9.52
2022-09-05T13:38:06.305Z,7.05
2022-09-05T13:39:03.319Z,10.77
2022-09-05T13:41:35.131Z,11.38
2022-09-05T13:44:26.402Z,9.07
2022-09-05T13:47:29.328Z,10.07
2022-09-05T13:50:19.924Z,8.05
2022-09-05T13:52:56.589Z,11.20
2022-09-05T13:55:35.059Z,14.57
2022-09-05T13:58:09.434Z,10.30
2022-09-05T14:00:38.109Z,8.68
2022-09-05T14:03:37.686Z,11.40
2022-09-05T14:06:37.807Z,12.90
2022-09-05T14:12:11.581Z,7.97
2022-09-05T14:17:54.205Z,10.20
2022-09-05T14:20:42.974Z,7.38
2022-09-05T14:23:15.832Z,10.35
2022-09-05T14:25:47.485Z,10.13
2022-09-05T14:28:22.975Z,8.60
2022-09-05T14:33:56.592Z,6.65
2022-09-05T14:37:44.260Z,5.75
2022-09-05T14:37:55.237Z,6.13
2022-09-05T14:40:30.015Z,10.38
2022-09-05T14:43:24.420Z,7.22
2022-09-05T14:46:20.129Z,9.05
2022-09-05T14:49:18.321Z,6.10
2022-09-05T14:51:48.442Z,6.43
2022-09-05T15:01:51.391Z,10.00
2022-09-05T15:02:48.045Z,11.13
2022-09-05T15:03:04.215Z,10.63
2022-09-05T15:05:31.835Z,13.90
2022-09-05T15:08:18.287Z,7.03
2022-09-05T15:11:47.258Z,15.93
2022-09-05T15:13:57.247Z,6.57
2022-09-05T15:16:25.629Z,7.22
2022-09-05T15:18:53.323Z,6.13
2022-09-05T15:21:34.617Z,8.55
2022-09-05T15:24:14.862Z,9.70
2022-09-05T15:26:52.711Z,7.07
2022-09-05T15:29:25.471Z,9.70
2022-09-05T15:32:09.547Z,6.80
2022-09-05T15:34:38.710Z,7.50
2022-09-05T15:37:22.335Z,8.05
2022-09-05T15:40:01.041Z,7.78
2022-09-05T15:42:32.619Z,8.75
2022-09-05T15:45:11.104Z,9.07
2022-09-05T15:47:43.566Z,10.85
2022-09-05T15:50:21.789Z,8.57
2022-09-05T15:52:55.661Z,6.82
2022-09-05T15:55:26.306Z,6.45
2022-09-05T15:57:58.846Z,8.57
2022-09-05T16:00:41.592Z,8.07
2022-09-05T16:04:59.063Z,10.18
2022-09-05T16:10:27.713Z,11.10
2022-09-05T16:10:50.280Z,7.70
2022-09-05T16:12:17.247Z,7.53
2022-09-05T16:15:19.889Z,5.45
2022-09-05T16:23:30.072Z,5.70
2022-09-05T16:23:33.138Z,10.38
2022-09-05T16:23:40.466Z,9.25
2022-09-05T16:26:25.712Z,9.25
2022-09-05T16:29:25.307Z,9.00
2022-09-05T16:32:06.860Z,7.43
2022-09-05T16:34:54.323Z,9.10
2022-09-05T16:37:44.543Z,8.60
2022-09-05T16:40:21.882Z,8.43
2022-09-05T16:43:04.359Z,9.00
2022-09-05T16:45:52.682Z,10.07
2022-09-05T16:48:35.526Z,8.07
2022-09-05T16:51:17.289Z,11.90
2022-09-05T16:54:18.230Z,8.40
2022-09-05T16:56:50.202Z,8.10
2022-09-05T16:59:22.028Z,7.07
2022-09-05T17:02:07.372Z,6.93
2022-09-05T17:05:03.671Z,9.23
2022-09-05T17:07:52.173Z,8.73
2022-09-05T17:10:25.701Z,8.93
2022-09-05T17:12:53.825Z,9.00
2022-09-05T17:15:28.704Z,9.43
2022-09-05T17:18:22.138Z,11.98
2022-09-05T17:20:53.105Z,9.45
2022-09-05T17:29:15.292Z,9.20
2022-09-05T17:29:28.585Z,7.90
2022-09-05T17:32:39.100Z,10.55
2022-09-05T17:35:18.208Z,12.48
2022-09-05T17:37:56.750Z,9.55
2022-09-05T17:41:09.132Z,14.23
2022-09-05T17:43:38.771Z,12.65
2022-09-05T17:46:16.253Z,8.30
2022-09-05T17:49:18.347Z,10.88
2022-09-05T17:52:18.320Z,11.25
2022-09-05T17:54:52.439Z,12.18
2022-09-05T17:57:35.154Z,10.27
2022-09-05T18:00:36.904Z,10.73
2022-09-05T18:03:03.691Z,12.15
2022-09-05T18:06:03.773Z,11.05
2022-09-05T18:08:45.750Z,9.75
2022-09-05T18:11:27.570Z,9.95
2022-09-05T18:14:05.989Z,9.20
2022-09-05T18:19:59.946Z,10.15
2022-09-05T18:22:39.520Z,12.55
2022-09-05T18:25:32.192Z,14.13
2022-09-05T18:28:12.603Z,12.93
2022-09-05T18:30:39.447Z,17.80
2022-09-05T18:33:53.434Z,13.70
2022-09-05T18:35:57.889Z,15.48
2022-09-05T18:38:50.269Z,17.25
2022-09-05T18:41:21.736Z,13.50
2022-09-05T18:44:12.360Z,11.95
2022-09-05T18:46:49.256Z,14.25
2022-09-05T18:50:00.319Z,15.37
2022-09-05T18:52:27.659Z,9.77
2022-09-05T18:56:09.230Z,9.45
2022-09-05T18:58:03.752Z,11.88
2022-09-05T19:00:46.862Z,9.77
2022-09-05T19:03:25.084Z,8.27
2022-09-05T19:06:34.985Z,8.07
2022-09-05T19:08:54.865Z,8.90
2022-09-05T19:11:28.352Z,8.80
2022-09-05T19:14:25.553Z,11.32
2022-09-05T19:16:48.428Z,8.32
2022-09-05T19:19:24.780Z,12.52
2022-09-05T19:22:39.574Z,10.85
2022-09-05T19:24:46.202Z,10.98
2022-09-05T19:28:07.325Z,9.70
2022-09-05T19:36:46.446Z,8.30
2022-09-05T19:37:04.777Z,11.90
2022-09-05T19:37:22.246Z,8.68
2022-09-05T19:38:34.144Z,11.60
2022-09-05T19:47:31.593Z,8.90
2022-09-05T19:47:42.045Z,10.02
2022-09-05T19:47:46.936Z,9.93
2022-09-05T19:50:03.404Z,11.25
2022-09-05T19:52:30.111Z,9.77
2022-09-05T19:55:02.166Z,10.43
2022-09-05T19:57:30.150Z,9.00
2022-09-05T20:00:02.293Z,10.77
2022-09-05T20:02:34.998Z,9.10
2022-09-05T20:05:07.506Z,12.38
2022-09-05T20:07:47.923Z,10.13
2022-09-05T20:10:28.012Z,9.98
2022-09-05T20:12:55.133Z,11.30
2022-09-05T20:15:35.932Z,9.13
2022-09-05T20:18:18.491Z,8.63
2022-09-05T20:21:01.591Z,8.30
2022-09-05T20:23:31.323Z,8.65
2022-09-05T20:25:58.597Z,18.25
2022-09-05T20:28:30.847Z,11.45
2022-09-05T20:31:01.872Z,10.88
2022-09-05T20:33:32.285Z,10.07
2022-09-05T20:40:41.721Z,11.63
2022-09-05T20:43:19.943Z,10.40
2022-09-05T20:43:23.237Z,12.50
2022-09-05T20:44:50.440Z,10.48
2022-09-05T20:54:04.673Z,11.50
2022-09-05T20:54:14.294Z,8.32
2022-09-05T20:54:21.138Z,9.23
2022-09-05T20:56:22.680Z,9.15
2022-09-05T20:58:51.451Z,7.90
2022-09-05T21:01:23.608Z,9.07
2022-09-05T21:03:56.805Z,12.77
2022-09-05T21:06:33.403Z,9.93
2022-09-05T21:09:25.137Z,9.15
2022-09-05T21:11:54.398Z,7.93
2022-09-05T21:14:23.547Z,9.10
2022-09-05T21:17:16.046Z,9.00
2022-09-05T21:19:53.605Z,12.55
2022-09-05T21:22:20.917Z,10.98
2022-09-05T21:24:48.395Z,10.50
2022-09-05T21:27:22.306Z,10.77
2022-09-05T21:29:58.915Z,11.30
2022-09-05T21:32:33.465Z,9.13
2022-09-05T21:35:34.795Z,10.35
2022-09-05T21:37:53.782Z,13.32
2022-09-05T21:40:21.356Z,9.60
2022-09-05T21:47:34.015Z,10.55
2022-09-05T21:47:46.739Z,8.45
2022-09-05T21:48:26.207Z,12.00
2022-09-05T21:50:55.633Z,8.98
2022-09-05T21:55:14.828Z,12.02
2022-09-05T21:59:27.216Z,17.80
2022-09-05T21:59:36.697Z,10.85
2022-09-05T22:01:58.782Z,13.27
2022-09-05T22:04:25.649Z,10.48
2022-09-05T22:06:54.275Z,9.68
2022-09-05T22:09:22.845Z,15.80
2022-09-05T22:11:51.417Z,25.55
2022-09-05T22:14:21.669Z,13.35
2022-09-05T22:16:50.783Z,13.07
2022-09-05T22:19:22.966Z,13.40
2022-09-05T22:21:53.541Z,14.07
2022-09-05T22:24:22.016Z,12.35
2022-09-05T22:27:12.715Z,14.10
2022-09-05T22:29:40.228Z,9.23
2022-09-05T22:32:07.780Z,16.90
2022-09-05T22:34:34.440Z,10.13
2022-09-05T22:37:01.135Z,12.82
2022-09-05T22:39:37.317Z,11.95
2022-09-05T22:42:10.669Z,10.65
2022-09-05T22:44:39.447Z,15.75
2022-09-05T22:47:09.439Z,10.73
2022-09-05T22:49:36.933Z,11.68
2022-09-05T22:52:06.497Z,9.43
2022-09-05T22:54:34.321Z,11.65
2022-09-05T22:57:01.826Z,14.95
2022-09-05T22:59:28.615Z,11.10
2022-09-05T23:01:55.526Z,12.75
2022-09-05T23:04:23.007Z,10.30
2022-09-05T23:06:49.728Z,11.63
2022-09-05T23:09:16.399Z,11.77
2022-09-05T23:11:43.023Z,11.90
2022-09-05T23:14:09.683Z,14.60
2022-09-05T23:16:36.320Z,11.30
2022-09-05T23:19:02.953Z,13.20
2022-09-05T23:21:29.789Z,15.30
2022-09-05T23:23:56.511Z,14.13
2022-09-05T23:26:23.178Z,10.63
2022-09-05T23:28:49.817Z,11.30
2022-09-05T23:31:16.552Z,18.13
2022-09-05T23:33:43.294Z,8.35
2022-09-05T23:36:13.888Z,8.50
2022-09-05T23:38:42.325Z,9.27
2022-09-05T23:41:13.014Z,8.82
2022-09-05T23:43:39.718Z,19.60
2022-09-05T23:46:06.898Z,11.98
2022-09-05T23:48:33.827Z,11.90
2022-09-05T23:51:09.960Z,10.98
2022-09-05T23:56:05.374Z,11.43
2022-09-05T23:58:32.982Z,10.25
